Time;durP1;ratioP1;P1;durP2;ratioP2;P2;SDS_P1;SDS_P2;PMS_P1;PMS_P2;Temp;Humidity;BMP_temperature;BMP_pressure;BME280_temperature;BME280_humidity;BME280_pressure;Samples;Min_cycle;Max_cycle;Signal;HPM_P1;HPM_P2
2023/12/11 00:02:15;;;;;;;39.80;17.83;;;;;;;1.26;nan;100724.97;4959713;28;20202;-68
2023/12/11 00:04:40;;;;;;;39.08;17.52;;;;;;;1.21;nan;100714.25;4970797;28;20038;-68
2023/12/11 00:07:05;;;;;;;44.85;18.52;;;;;;;1.16;nan;100719.09;4970453;28;20058;-68
2023/12/11 00:09:31;;;;;;;43.80;18.83;;;;;;;1.20;nan;100734.19;5017339;28;20059;-68
2023/12/11 00:11:57;;;;;;;41.25;17.95;;;;;;;1.13;nan;100720.22;5058154;28;20016;-67
2023/12/11 00:14:22;;;;;;;46.05;18.70;;;;;;;1.29;nan;100750.59;5056340;28;20115;-69
2023/12/11 00:16:48;;;;;;;46.45;19.05;;;;;;;1.30;nan;100728.88;5056715;28;20020;-68
2023/12/11 00:19:13;;;;;;;43.58;18.23;;;;;;;1.16;nan;100696.56;5056351;28;20044;-68
2023/12/11 00:21:38;;;;;;;44.75;18.35;;;;;;;1.30;nan;100717.72;5057480;28;20028;-68
2023/12/11 00:24:05;;;;;;;37.65;17.45;;;;;;;1.26;nan;100707.63;5056396;28;20107;-67
2023/12/11 00:26:30;;;;;;;43.15;18.10;;;;;;;1.34;nan;100716.41;5066385;28;20070;-69
2023/12/11 00:28:55;;;;;;;35.60;16.67;;;;;;;1.23;nan;100701.94;5071415;28;20012;-67
2023/12/11 00:31:21;;;;;;;40.78;16.83;;;;;;;1.31;nan;100724.50;5067407;28;20048;-69
2023/12/11 00:33:46;;;;;;;38.00;15.77;;;;;;;1.27;nan;100714.44;5054711;28;20063;-68
2023/12/11 00:36:12;;;;;;;33.72;15.80;;;;;;;1.15;nan;100704.50;5071535;28;20032;-68
2023/12/11 00:38:37;;;;;;;37.35;16.73;;;;;;;1.20;nan;100708.25;5074288;28;20025;-68
2023/12/11 00:41:07;;;;;;;51.42;16.98;;;;;;;1.07;nan;100687.13;5058837;28;20419;-68
2023/12/11 00:43:32;;;;;;;40.15;16.10;;;;;;;1.22;nan;100711.53;5061792;28;20095;-68
2023/12/11 00:45:57;;;;;;;34.83;14.93;;;;;;;1.27;nan;100721.44;5061383;28;20116;-67
2023/12/11 00:48:23;;;;;;;34.78;15.40;;;;;;;1.22;nan;100723.66;5060947;28;20037;-68
2023/12/11 00:50:48;;;;;;;35.75;15.52;;;;;;;1.17;nan;100718.13;5061294;28;20024;-68
2023/12/11 00:53:14;;;;;;;32.90;15.07;;;;;;;1.15;nan;100723.47;5063995;28;20069;-67
2023/12/11 00:55:39;;;;;;;34.60;16.02;;;;;;;1.23;nan;100738.25;5044623;28;20059;-69
2023/12/11 00:58:05;;;;;;;36.72;16.52;;;;;;;1.19;nan;100732.56;5064740;28;20024;-69
2023/12/11 01:00:30;;;;;;;37.22;16.73;;;;;;;1.23;nan;100735.66;5065573;28;20077;-69
2023/12/11 01:02:56;;;;;;;38.03;15.68;;;;;;;1.27;nan;100747.38;5062103;28;20043;-67
2023/12/11 01:05:21;;;;;;;32.53;14.27;;;;;;;1.16;nan;100727.69;5063195;28;20021;-68
2023/12/11 01:07:47;;;;;;;34.22;14.73;;;;;;;1.15;nan;100736.44;5047605;28;20103;-68
2023/12/11 01:10:12;;;;;;;35.47;15.13;;;;;;;1.23;nan;100727.88;5045466;28;20105;-66
2023/12/11 01:12:37;;;;;;;34.65;14.10;;;;;;;1.19;nan;100709.22;5045102;28;20102;-66
2023/12/11 01:15:07;;;;;;;33.47;14.13;;;;;;;1.06;nan;100688.91;5060134;28;20037;-68
2023/12/11 01:17:32;;;;;;;32.72;14.10;;;;;;;1.15;nan;100694.94;5061862;28;20482;-68
2023/12/11 01:19:57;;;;;;;33.20;14.48;;;;;;;1.21;nan;100698.69;5057785;28;20037;-68
2023/12/11 01:22:23;;;;;;;31.48;14.05;;;;;;;1.17;nan;100693.00;5061059;28;20778;-69
2023/12/11 01:24:48;;;;;;;34.38;14.07;;;;;;;1.06;nan;100673.34;5061244;28;20767;-69
2023/12/11 01:27:14;;;;;;;29.95;13.98;;;;;;;1.13;nan;100683.13;5057536;28;20047;-69
2023/12/11 01:29:39;;;;;;;33.30;14.77;;;;;;;1.08;nan;100685.34;5060327;28;20020;-69
2023/12/11 01:32:05;;;;;;;30.63;14.63;;;;;;;1.20;nan;100697.09;5058341;28;20480;-68
2023/12/11 01:34:30;;;;;;;32.83;14.77;;;;;;;1.08;nan;100683.56;5060928;28;20032;-69
2023/12/11 01:36:56;;;;;;;37.40;14.93;;;;;;;1.14;nan;100705.47;5060690;28;20588;-68
2023/12/11 01:39:21;;;;;;;31.58;13.93;;;;;;;1.21;nan;100703.88;5051341;28;20021;-69
2023/12/11 01:41:47;;;;;;;32.38;13.98;;;;;;;1.20;nan;100691.91;5060128;28;20021;-68
2023/12/11 01:44:12;;;;;;;33.47;15.30;;;;;;;1.08;nan;100672.38;5058122;28;20033;-71
2023/12/11 01:46:38;;;;;;;35.03;15.57;;;;;;;1.17;nan;100679.22;5059035;28;20093;-70
2023/12/11 01:49:04;;;;;;;38.67;15.55;;;;;;;1.17;nan;100672.25;5058638;28;20028;-70
2023/12/11 01:51:29;;;;;;;39.35;16.77;;;;;;;1.24;nan;100677.63;5060234;28;20050;-69
2023/12/11 01:53:55;;;;;;;36.42;15.50;;;;;;;1.24;nan;100686.22;5061176;28;20036;-67
2023/12/11 01:56:21;;;;;;;32.83;15.13;;;;;;;1.21;nan;100670.16;5058355;28;20013;-70
2023/12/11 01:58:47;;;;;;;36.08;15.68;;;;;;;1.27;nan;100672.94;5061505;28;20028;-69
2023/12/11 02:01:14;;;;;;;39.25;15.85;;;;;;;1.25;nan;100661.09;5061692;28;20032;-70
2023/12/11 02:03:40;;;;;;;38.28;16.60;;;;;;;1.32;nan;100658.66;5060393;28;20023;-69
2023/12/11 02:06:06;;;;;;;38.17;16.02;;;;;;;1.28;nan;100648.63;5059850;28;20105;-69
2023/12/11 02:08:32;;;;;;;37.65;16.05;;;;;;;1.24;nan;100639.50;5058870;28;20193;-69
2023/12/11 02:10:58;;;;;;;38.28;15.80;;;;;;;1.30;nan;100642.47;5057783;28;20021;-68
2023/12/11 02:13:23;;;;;;;38.08;16.95;;;;;;;1.20;nan;100622.66;5059778;28;20020;-69
2023/12/11 02:15:50;;;;;;;35.90;15.48;;;;;;;1.25;nan;100635.16;5059920;28;20028;-68
2023/12/11 02:18:16;;;;;;;38.92;16.30;;;;;;;1.32;nan;100658.66;5059812;28;20039;-66
2023/12/11 02:20:43;;;;;;;38.70;16.25;;;;;;;1.32;nan;100659.50;5058462;28;20420;-70
2023/12/11 02:23:20;;;;;;;36.78;15.98;;;;;;;1.34;nan;100656.72;5058774;28;20064;-66
2023/12/11 02:25:55;;;;;;;39.88;16.38;;;;;;;1.24;nan;100647.28;5061888;28;20051;-66
2023/12/11 02:28:21;;;;;;;42.58;16.08;;;;;;;1.26;nan;100644.56;5060933;28;20025;-66
2023/12/11 02:30:53;;;;;;;35.95;15.65;;;;;;;1.28;nan;100653.00;5060826;28;20964;-67
2023/12/11 02:33:18;;;;;;;37.58;16.35;;;;;;;1.22;nan;100649.25;5040767;28;20032;-68
2023/12/11 02:35:44;;;;;;;35.60;14.65;;;;;;;1.31;nan;100667.44;5058157;28;20474;-67
2023/12/11 02:38:09;;;;;;;40.78;16.67;;;;;;;1.31;nan;100668.25;5056791;28;20036;-67
2023/12/11 02:40:35;;;;;;;36.80;16.10;;;;;;;1.31;nan;100665.66;5060323;28;20033;-68
2023/12/11 02:43:00;;;;;;;37.13;15.73;;;;;;;1.32;nan;100667.28;5061649;28;20028;-67
2023/12/11 02:45:25;;;;;;;38.75;17.05;;;;;;;1.32;nan;100666.44;5056951;28;20473;-68
2023/12/11 02:47:51;;;;;;;36.83;15.18;;;;;;;1.22;nan;100649.25;5054399;28;20048;-65
2023/12/11 02:50:16;;;;;;;36.38;15.27;;;;;;;1.34;nan;100667.94;5058631;28;20363;-66
2023/12/11 02:52:42;;;;;;;36.10;15.63;;;;;;;1.31;nan;100660.44;5060387;28;20041;-67
2023/12/11 02:55:07;;;;;;;39.25;15.95;;;;;;;1.31;nan;100655.25;5058710;28;20390;-67
2023/12/11 02:57:33;;;;;;;36.78;15.57;;;;;;;1.26;nan;100660.13;5061490;28;20020;-66
2023/12/11 02:59:58;;;;;;;38.00;15.60;;;;;;;1.35;nan;100663.56;5060353;28;20028;-68
2023/12/11 03:02:24;;;;;;;39.22;16.77;;;;;;;1.35;nan;100651.41;5058310;28;20027;-67
2023/12/11 03:04:49;;;;;;;33.67;14.90;;;;;;;1.34;nan;100646.34;5043773;28;20020;-67
2023/12/11 03:07:15;;;;;;;34.05;14.63;;;;;;;1.25;nan;100635.97;5061567;28;20031;-67
2023/12/11 03:09:40;;;;;;;38.75;15.77;;;;;;;1.35;nan;100651.41;5059266;28;20490;-67
2023/12/11 03:12:06;;;;;;;40.25;15.15;;;;;;;1.30;nan;100624.31;5055849;28;20043;-66
2023/12/11 03:14:32;;;;;;;36.33;15.55;;;;;;;1.27;nan;100625.44;5059089;28;20040;-67
2023/12/11 03:16:57;;;;;;;38.08;15.15;;;;;;;1.16;nan;100617.94;5056395;28;20433;-66
2023/12/11 03:19:24;;;;;;;41.70;16.13;;;;;;;1.14;nan;100609.50;5045881;28;20062;-67
2023/12/11 03:21:49;;;;;;;39.40;14.98;;;;;;;1.22;nan;100617.28;5058644;28;20382;-69
2023/12/11 03:24:15;;;;;;;39.05;16.02;;;;;;;1.25;nan;100620.41;5045608;28;20027;-69
2023/12/11 03:26:40;;;;;;;36.55;14.15;;;;;;;1.31;nan;100633.72;5056532;28;20439;-68
2023/12/11 03:29:06;;;;;;;39.00;15.95;;;;;;;1.28;nan;100627.06;5056681;28;21129;-69
2023/12/11 03:31:31;;;;;;;39.65;14.95;;;;;;;1.24;nan;100626.53;5057218;28;20425;-70
2023/12/11 03:33:56;;;;;;;34.50;15.20;;;;;;;1.22;nan;100604.31;5044728;28;20038;-69
2023/12/11 03:36:22;;;;;;;40.80;16.45;;;;;;;1.24;nan;100621.34;5058551;28;20024;-69
2023/12/11 03:38:47;;;;;;;37.50;15.05;;;;;;;1.36;nan;100640.03;5061563;28;20032;-69
2023/12/11 03:41:13;;;;;;;38.50;14.90;;;;;;;1.26;nan;100621.22;5058359;28;20423;-69
2023/12/11 03:43:38;;;;;;;40.38;15.00;;;;;;;1.35;nan;100637.63;5059413;28;20039;-69
2023/12/11 03:46:04;;;;;;;38.72;15.98;;;;;;;1.39;nan;100636.31;5046382;28;20041;-69
2023/12/11 03:48:30;;;;;;;41.88;14.55;;;;;;;1.24;nan;100604.97;5056414;28;20032;-70
2023/12/11 03:50:56;;;;;;;36.78;14.35;;;;;;;1.36;nan;100634.84;5057407;28;20103;-69
2023/12/11 03:53:21;;;;;;;38.67;14.52;;;;;;;1.31;nan;100618.13;5033129;28;20464;-70
2023/12/11 03:55:47;;;;;;;43.60;15.85;;;;;;;1.36;nan;100621.88;5017955;28;20104;-69
2023/12/11 03:58:13;;;;;;;44.38;15.40;;;;;;;1.31;nan;100612.94;5017863;28;20897;-71
2023/12/11 04:00:39;;;;;;;51.45;16.33;;;;;;;1.32;nan;100619.75;5022854;28;20041;-70
2023/12/11 04:03:04;;;;;;;45.78;15.60;;;;;;;1.31;nan;100620.72;5016018;28;20064;-70
2023/12/11 04:05:29;;;;;;;46.50;16.05;;;;;;;1.24;nan;100613.56;5020577;28;20036;-70
2023/12/11 04:07:55;;;;;;;48.08;16.33;;;;;;;1.28;nan;100614.88;5035528;28;20001;-70
2023/12/11 04:10:20;;;;;;;48.28;16.08;;;;;;;1.25;nan;100609.22;5055635;28;20046;-70
2023/12/11 04:12:46;;;;;;;40.80;15.48;;;;;;;1.27;nan;100607.28;5038963;28;20032;-69
2023/12/11 04:15:11;;;;;;;46.78;15.75;;;;;;;1.27;nan;100615.06;5036648;28;20026;-68
2023/12/11 04:17:37;;;;;;;47.20;16.00;;;;;;;1.23;nan;100609.38;5038024;28;20061;-69
2023/12/11 04:20:04;;;;;;;43.05;15.18;;;;;;;1.30;nan;100630.31;5032004;28;20049;-70
2023/12/11 04:22:29;;;;;;;43.22;14.57;;;;;;;1.21;nan;100619.09;5020205;28;20026;-69
2023/12/11 04:24:55;;;;;;;42.13;15.95;;;;;;;1.24;nan;100612.78;5022468;28;20067;-70
2023/12/11 04:27:20;;;;;;;46.20;15.85;;;;;;;1.34;nan;100630.78;5021785;28;20017;-71
2023/12/11 04:29:46;;;;;;;48.35;15.07;;;;;;;1.31;nan;100626.72;5038365;28;20533;-70
2023/12/11 04:32:11;;;;;;;47.75;16.20;;;;;;;1.34;nan;100636.81;5020963;28;20060;-70
2023/12/11 04:34:37;;;;;;;49.92;15.70;;;;;;;1.23;nan;100618.94;5023149;28;20029;-71
2023/12/11 04:37:03;;;;;;;45.08;15.48;;;;;;;1.35;nan;100638.41;5022334;28;20029;-69
2023/12/11 04:39:28;;;;;;;47.92;16.35;;;;;;;1.27;nan;100630.63;5019663;28;20029;-69
2023/12/11 04:41:54;;;;;;;48.50;16.60;;;;;;;1.27;nan;100631.44;5024253;28;20117;-70
2023/12/11 04:44:19;;;;;;;51.03;16.92;;;;;;;1.34;nan;100639.41;5021914;28;20028;-70
2023/12/11 04:46:45;;;;;;;47.08;17.05;;;;;;;1.28;nan;100629.66;5021387;28;20041;-69
2023/12/11 04:49:10;;;;;;;48.78;16.38;;;;;;;1.34;nan;100639.41;5019187;28;20029;-70
2023/12/11 04:51:36;;;;;;;50.83;16.90;;;;;;;1.34;nan;100633.38;5030178;28;20049;-71
2023/12/11 04:54:01;;;;;;;47.03;16.88;;;;;;;1.35;nan;100637.63;5060521;28;20032;-71
2023/12/11 04:56:26;;;;;;;51.85;16.95;;;;;;;1.36;nan;100632.25;5059753;28;20036;-71
2023/12/11 04:58:52;;;;;;;53.80;17.20;;;;;;;1.36;nan;100624.47;5062979;28;20078;-71
2023/12/11 05:01:17;;;;;;;50.30;15.73;;;;;;;1.38;nan;100622.53;5059424;28;20024;-71
2023/12/11 05:03:44;;;;;;;43.13;16.02;;;;;;;1.16;nan;100592.81;5060752;28;20052;-71
2023/12/11 05:06:10;;;;;;;47.15;16.02;;;;;;;1.34;nan;100629.03;5058399;28;20043;-70
2023/12/11 05:08:35;;;;;;;42.05;15.68;;;;;;;1.37;nan;100635.69;5058480;28;20351;-70
2023/12/11 05:11:01;;;;;;;44.50;16.05;;;;;;;1.30;nan;100629.50;5057501;28;20032;-69
2023/12/11 05:13:26;;;;;;;48.50;17.58;;;;;;;1.32;nan;100632.72;5062145;28;20090;-70
2023/12/11 05:15:52;;;;;;;46.97;15.70;;;;;;;1.36;nan;100642.63;5058960;28;20116;-71
2023/12/11 05:18:17;;;;;;;45.92;15.20;;;;;;;1.37;nan;100633.88;5059055;28;20384;-71
2023/12/11 05:20:43;;;;;;;41.45;15.88;;;;;;;1.35;nan;100622.06;5059105;28;20063;-71
2023/12/11 05:23:08;;;;;;;35.35;13.13;;;;;;;1.26;nan;100616.03;5060569;28;20024;-70
2023/12/11 05:25:33;;;;;;;34.92;13.10;;;;;;;1.34;nan;100625.59;5061245;28;20119;-70
2023/12/11 05:27:59;;;;;;;33.28;12.57;;;;;;;1.28;nan;100621.88;5049969;28;20021;-69
2023/12/11 05:30:24;;;;;;;36.35;12.73;;;;;;;1.23;nan;100609.38;5062557;28;20112;-69
2023/12/11 05:32:50;;;;;;;38.45;13.50;;;;;;;1.25;nan;100606.63;5061243;28;20036;-70
2023/12/11 05:35:15;;;;;;;38.88;13.43;;;;;;;1.31;nan;100631.91;5062739;28;20029;-70
2023/12/11 05:37:41;;;;;;;37.60;14.50;;;;;;;1.30;nan;100629.50;5059720;28;20016;-70
2023/12/11 05:40:08;;;;;;;40.15;14.25;;;;;;;1.29;nan;100633.84;5060911;28;20068;-69
2023/12/11 05:42:33;;;;;;;42.53;13.60;;;;;;;1.24;nan;100623.94;5061703;28;20490;-69
2023/12/11 05:44:58;;;;;;;33.30;12.95;;;;;;;1.31;nan;100636.31;5058691;28;20036;-69
2023/12/11 05:47:24;;;;;;;33.80;13.27;;;;;;;1.27;nan;100641.00;5045991;28;20038;-70
2023/12/11 05:49:49;;;;;;;30.90;12.90;;;;;;;1.24;nan;100639.50;5061957;28;20024;-70
2023/12/11 05:52:15;;;;;;;36.33;12.63;;;;;;;1.23;nan;100630.13;5062835;28;20043;-71
2023/12/11 05:54:40;;;;;;;34.00;12.90;;;;;;;1.25;nan;100633.38;5048780;28;20124;-70
2023/12/11 05:57:06;;;;;;;33.70;13.18;;;;;;;1.26;nan;100616.03;5062846;28;20032;-68
2023/12/11 05:59:31;;;;;;;34.05;13.35;;;;;;;1.33;nan;100624.00;5059690;28;20021;-68
2023/12/11 06:01:56;;;;;;;38.97;13.98;;;;;;;1.24;nan;100605.78;5050166;28;20082;-69
2023/12/11 06:04:23;;;;;;;31.10;13.13;;;;;;;1.16;nan;100595.41;5057594;28;20017;-69
2023/12/11 06:06:49;;;;;;;28.98;12.60;;;;;;;1.33;nan;100624.78;5062229;28;20026;-69
2023/12/11 06:09:14;;;;;;;30.35;12.55;;;;;;;1.14;nan;100596.53;5060867;28;20103;-69
2023/12/11 06:11:40;;;;;;;38.13;14.68;;;;;;;1.21;nan;100602.72;5045187;28;20039;-69
2023/12/11 06:14:06;;;;;;;37.45;14.65;;;;;;;1.31;nan;100613.75;5061838;28;20544;-69
2023/12/11 06:16:32;;;;;;;36.53;13.18;;;;;;;1.24;nan;100607.59;5062877;28;20028;-69
2023/12/11 06:18:57;;;;;;;36.47;14.30;;;;;;;1.21;nan;100611.31;5043728;28;21156;-69
2023/12/11 06:21:24;;;;;;;36.08;13.98;;;;;;;1.24;nan;100623.94;5057506;28;20086;-67
2023/12/11 06:23:49;;;;;;;37.88;14.80;;;;;;;1.27;nan;100626.25;5059325;28;20029;-67
2023/12/11 06:26:24;;;;;;;36.70;15.40;;;;;;;1.26;nan;100631.59;5059162;28;20051;-68
2023/12/11 06:28:50;;;;;;;38.40;14.40;;;;;;;1.24;nan;100629.13;5061292;28;20095;-68
2023/12/11 06:31:15;;;;;;;50.08;16.38;;;;;;;1.26;nan;100619.41;5062347;28;20104;-67
2023/12/11 06:33:41;;;;;;;37.40;14.38;;;;;;;1.24;nan;100613.56;5061357;28;20051;-67
2023/12/11 06:36:06;;;;;;;41.83;15.35;;;;;;;1.37;nan;100626.09;5049519;28;20515;-67
2023/12/11 06:38:32;;;;;;;42.90;15.20;;;;;;;1.32;nan;100620.59;5062532;28;20025;-69
2023/12/11 06:40:57;;;;;;;42.90;16.13;;;;;;;1.38;nan;100626.91;5060296;28;20024;-69
2023/12/11 06:43:23;;;;;;;46.47;15.32;;;;;;;1.37;nan;100633.09;5061051;28;20024;-69
2023/12/11 06:45:48;;;;;;;47.03;15.45;;;;;;;1.36;nan;100627.06;5062962;28;20034;-69
2023/12/11 06:48:13;;;;;;;45.13;15.23;;;;;;;1.37;nan;100635.69;5060985;28;20060;-68
2023/12/11 06:50:41;;;;;;;39.33;15.25;;;;;;;1.41;nan;100642.16;5062545;28;20436;-70
2023/12/11 06:53:06;;;;;;;39.67;15.65;;;;;;;1.30;nan;100625.13;5064384;28;20057;-70
2023/12/11 06:55:31;;;;;;;41.45;15.48;;;;;;;1.34;nan;100620.41;5049138;28;20117;-69
2023/12/11 06:57:57;;;;;;;39.13;14.68;;;;;;;1.34;nan;100607.44;5065068;28;20024;-70
2023/12/11 07:00:23;;;;;;;41.70;15.20;;;;;;;1.43;nan;100628.06;5043377;28;20016;-69
2023/12/11 07:02:48;;;;;;;46.42;16.30;;;;;;;1.44;nan;100629.69;5059223;28;20044;-67
2023/12/11 07:05:13;;;;;;;50.47;16.98;;;;;;;1.42;nan;100618.66;5060205;28;20488;-69
2023/12/11 07:07:39;;;;;;;41.38;15.95;;;;;;;1.34;nan;100599.66;5060441;28;20570;-69
2023/12/11 07:10:05;;;;;;;39.50;15.75;;;;;;;1.38;nan;100614.75;5063607;28;20016;-69
2023/12/11 07:12:30;;;;;;;43.75;15.48;;;;;;;1.43;nan;100615.06;5051458;28;20482;-70
2023/12/11 07:14:56;;;;;;;36.78;14.95;;;;;;;1.36;nan;100606.31;5065259;28;20433;-69
2023/12/11 07:17:22;;;;;;;43.13;16.98;;;;;;;1.44;nan;100605.53;5060132;28;20024;-68
2023/12/11 07:19:47;;;;;;;47.83;17.95;;;;;;;1.47;nan;100600.00;5068899;28;20020;-70
2023/12/11 07:22:13;;;;;;;46.13;16.70;;;;;;;1.51;nan;100611.72;5073134;28;20036;-68
2023/12/11 07:24:42;;;;;;;43.35;16.02;;;;;;;1.52;nan;100602.13;5033817;28;20054;-67
2023/12/11 07:27:11;;;;;;;43.40;15.98;;;;;;;1.52;nan;100591.75;5045806;28;20081;-67
2023/12/11 07:29:46;;;;;;;48.22;15.85;;;;;;;1.51;nan;100585.75;5043276;28;20040;-67
2023/12/11 07:32:20;;;;;;;37.58;15.07;;;;;;;1.52;nan;100594.34;5057106;28;20024;-67
2023/12/11 07:34:45;;;;;;;34.55;14.05;;;;;;;1.42;nan;100568.53;5064554;28;20032;-70
2023/12/11 07:37:14;;;;;;;40.22;14.55;;;;;;;1.16;nan;100532.34;5060121;28;20057;-70
2023/12/11 07:39:39;;;;;;;40.00;15.27;;;;;;;1.45;nan;100563.03;5059708;28;20197;-70
2023/12/11 07:42:05;;;;;;;45.28;15.43;;;;;;;1.46;nan;100562.88;5063441;28;20115;-71
2023/12/11 07:44:31;;;;;;;41.47;14.90;;;;;;;1.45;nan;100563.03;5053603;28;20500;-71
2023/12/11 07:46:56;;;;;;;42.58;14.48;;;;;;;1.50;nan;100565.94;5050036;28;20025;-70
2023/12/11 07:49:25;;;;;;;41.65;15.38;;;;;;;1.47;nan;100559.31;5063962;28;20143;-70
2023/12/11 07:51:52;;;;;;;45.53;15.32;;;;;;;1.46;nan;100546.47;5063236;28;20047;-69
2023/12/11 07:54:18;;;;;;;49.28;16.60;;;;;;;1.53;nan;100546.66;5044314;28;20094;-70
2023/12/11 07:56:43;;;;;;;49.92;17.13;;;;;;;1.57;nan;100548.75;5062729;28;20360;-70
2023/12/11 07:59:10;;;;;;;46.00;16.85;;;;;;;1.49;nan;100533.19;5064048;28;20194;-70
2023/12/11 08:01:35;;;;;;;46.75;17.33;;;;;;;1.49;nan;100520.22;5051616;28;20032;-70
2023/12/11 08:04:01;;;;;;;45.67;17.10;;;;;;;1.61;nan;100539.69;5062028;28;20021;-69
2023/12/11 08:06:27;;;;;;;44.25;16.08;;;;;;;1.65;nan;100547.94;5063985;28;20035;-70
2023/12/11 08:08:52;;;;;;;40.33;15.75;;;;;;;1.62;nan;100543.88;5064797;28;20032;-70
2023/12/11 08:11:25;;;;;;;48.22;16.98;;;;;;;1.67;nan;100546.81;5041127;28;20364;-70
2023/12/11 08:13:50;;;;;;;42.08;15.43;;;;;;;1.77;nan;100538.84;5065084;28;20046;-70
2023/12/11 08:16:16;;;;;;;48.47;16.00;;;;;;;1.79;nan;100538.69;5065560;28;20115;-69
2023/12/11 08:18:42;;;;;;;40.22;15.10;;;;;;;1.80;nan;100527.34;5064283;28;20469;-69
2023/12/11 08:21:08;;;;;;;35.42;14.95;;;;;;;1.73;nan;100500.41;5051725;28;20029;-70
2023/12/11 08:23:33;;;;;;;44.65;16.80;;;;;;;1.83;nan;100508.84;5058354;28;20032;-69
2023/12/11 08:25:59;;;;;;;40.60;16.42;;;;;;;1.78;nan;100516.31;5060790;28;20048;-70
2023/12/11 08:28:24;;;;;;;42.17;15.88;;;;;;;1.74;nan;100504.63;5060626;28;20089;-68
2023/12/11 08:30:51;;;;;;;44.67;16.73;;;;;;;1.68;nan;100486.13;5047784;28;20518;-68
2023/12/11 08:33:16;;;;;;;42.67;16.60;;;;;;;1.91;nan;100525.19;5043011;28;20040;-68
2023/12/11 08:35:42;;;;;;;39.33;14.85;;;;;;;1.91;nan;100512.22;5061956;28;20393;-67
2023/12/11 08:38:31;;;;;;;38.30;14.88;;;;;;;1.97;nan;100541.13;5061692;28;20039;-67
2023/12/11 08:40:57;;;;;;;32.10;13.40;;;;;;;1.98;nan;100540.94;5061608;28;20048;-69
2023/12/11 08:43:23;;;;;;;37.95;15.18;;;;;;;;;;5061457;28;20025;-69
2023/12/11 08:45:48;;;;;;;32.30;13.25;;;;;;;;;;5063271;28;20031;-69
2023/12/11 08:48:13;;;;;;;37.88;14.65;;;;;;;;;;5041420;28;20066;-68
2023/12/11 08:51:01;;;;;;;38.50;13.98;;;;;;;;;;5048925;28;20108;-67
2023/12/11 08:53:26;;;;;;;35.55;13.57;;;;;;;;;;5027064;28;20384;-70
2023/12/11 08:55:53;;;;;;;31.43;14.57;;;;;;;;;;5027996;28;20047;-68
2023/12/11 08:58:19;;;;;;;33.35;14.68;;;;;;;;;;5021936;28;20310;-70
2023/12/11 09:00:44;;;;;;;34.10;15.43;;;;;;;2.20;nan;100533.41;5021623;28;20491;-69
2023/12/11 09:03:10;;;;;;;33.05;14.30;;;;;;;2.19;nan;100522.22;5021873;28;20541;-70
2023/12/11 09:05:35;;;;;;;33.63;14.65;;;;;;;2.34;nan;100530.13;5020967;28;20064;-70
2023/12/11 09:08:01;;;;;;;37.00;15.95;;;;;;;2.36;nan;100527.38;5019952;28;20082;-69
2023/12/11 09:10:26;;;;;;;37.90;15.23;;;;;;;2.39;nan;100527.03;5020730;28;20026;-71
2023/12/11 09:12:53;;;;;;;36.10;15.05;;;;;;;2.32;nan;100493.09;5018967;28;20025;-70
2023/12/11 09:15:19;;;;;;;35.10;14.68;;;;;;;2.47;nan;100496.63;5022548;28;20140;-71
2023/12/11 09:17:44;;;;;;;38.38;14.95;;;;;;;2.48;nan;100487.84;5021459;28;20100;-70
2023/12/11 09:20:10;;;;;;;33.67;13.80;;;;;;;2.46;nan;100471.59;5023234;28;20499;-70
2023/12/11 09:22:38;;;;;;;32.45;13.80;;;;;;;2.55;nan;100477.59;5026395;28;20029;-70
2023/12/11 09:25:03;;;;;;;33.83;14.52;;;;;;;2.59;nan;100465.06;5022686;28;20079;-69
2023/12/11 09:27:30;;;;;;;37.13;14.57;;;;;;;2.63;nan;100455.91;5023240;28;20029;-70
2023/12/11 09:29:56;;;;;;;32.95;13.18;;;;;;;2.70;nan;100462.84;5022092;28;20357;-70
2023/12/11 09:32:22;;;;;;;29.58;12.93;;;;;;;2.73;nan;100467.75;5022321;28;20033;-70
2023/12/11 09:34:48;;;;;;;29.45;12.82;;;;;;;2.70;nan;100451.66;5021701;28;20112;-74
2023/12/11 09:37:15;;;;;;;32.20;13.82;;;;;;;2.69;nan;100445.66;5018193;28;20032;-74
2023/12/11 09:39:41;;;;;;;29.33;12.73;;;;;;;2.86;nan;100459.34;5021089;28;20069;-73
2023/12/11 09:42:08;;;;;;;28.58;12.02;;;;;;;2.80;nan;100439.22;5022863;28;20115;-74
2023/12/11 09:44:34;;;;;;;24.55;11.10;;;;;;;2.94;nan;100448.09;5021635;28;20072;-73
2023/12/11 09:47:08;;;;;;;29.50;12.57;;;;;;;3.01;nan;100456.00;5020078;28;20037;-73
2023/12/11 09:49:33;;;;;;;29.15;12.65;;;;;;;3.09;nan;100461.97;5019774;28;20030;-74
2023/12/11 09:52:02;;;;;;;26.70;11.70;;;;;;;3.14;nan;100457.06;5039147;28;20580;-73
2023/12/11 09:54:27;;;;;;;25.55;12.52;;;;;;;3.17;nan;100432.47;5062825;28;20086;-75
2023/12/11 09:56:54;;;;;;;28.02;12.50;;;;;;;3.33;nan;100447.94;5061771;28;20036;-73
2023/12/11 09:59:20;;;;;;;26.55;13.95;;;;;;;3.34;nan;100433.13;5064115;28;20070;-74
2023/12/11 10:01:47;;;;;;;30.33;15.52;;;;;;;;;;5061991;28;20029;-75
2023/12/11 10:04:12;;;;;;;26.73;11.60;;;;;;;;;;5041730;28;20117;-74
2023/12/11 10:06:37;;;;;;;24.52;12.30;;;;;;;;;;5058483;28;20497;-75
2023/12/11 10:09:04;;;;;;;24.60;11.45;;;;;;;;;;5044971;28;20112;-75
2023/12/11 10:11:30;;;;;;;21.88;10.63;;;;;;;;;;5059866;28;20028;-74
2023/12/11 10:14:01;;;;;;;23.13;10.15;;;;;;;;;;5043292;28;20033;-74
2023/12/11 10:16:27;;;;;;;23.77;11.27;;;;;;;;;;5057476;28;20032;-74
2023/12/11 10:18:52;;;;;;;23.95;11.48;;;;;;;;;;5047143;28;20379;-75
2023/12/11 10:21:18;;;;;;;24.38;10.30;;;;;;;;;;5047548;28;20036;-75
2023/12/11 10:23:43;;;;;;;24.92;11.38;;;;;;;;;;5065006;28;20032;-75
2023/12/11 10:26:08;;;;;;;23.20;11.30;;;;;;;;;;5047168;28;20028;-73
2023/12/11 10:28:34;;;;;;;22.80;11.27;;;;;;;;;;5061288;28;20067;-75
2023/12/11 10:31:01;;;;;;;23.60;10.02;;;;;;;;;;5041229;28;20545;-75
2023/12/11 10:33:30;;;;;;;25.40;10.55;;;;;;;;;;5057051;28;20032;-74
2023/12/11 10:36:08;;;;;;;22.10;10.68;;;;;;;;;;5061150;28;20393;-74
2023/12/11 10:38:34;;;;;;;21.67;10.60;;;;;;;;;;5059281;28;20107;-74
2023/12/11 10:40:59;;;;;;;23.60;10.95;;;;;;;;;;5058105;28;20122;-69
2023/12/11 10:43:24;;;;;;;20.63;11.10;;;;;;;;;;5061277;28;20039;-72
2023/12/11 10:45:50;;;;;;;24.40;11.05;;;;;;;;;;5063039;28;20574;-71
2023/12/11 10:48:15;;;;;;;19.85;10.38;;;;;;;;;;5056564;28;20444;-72
2023/12/11 10:50:41;;;;;;;24.42;10.93;;;;;;;;;;5059993;28;20479;-71
2023/12/11 10:53:07;;;;;;;24.13;10.77;;;;;;;;;;5043904;28;20060;-71
2023/12/11 10:55:33;;;;;;;23.98;10.82;;;;;;;;;;5059789;28;20077;-71
2023/12/11 10:58:00;;;;;;;22.65;10.50;;;;;;;;;;5057476;28;20032;-72
2023/12/11 11:00:26;;;;;;;22.98;10.60;;;;;;;;;;5060167;28;20025;-72
2023/12/11 11:02:55;;;;;;;24.45;10.15;;;;;;;;;;5062149;28;20037;-66
2023/12/11 11:05:20;;;;;;;21.58;10.15;;;;;;;;;;5044846;28;20025;-68
2023/12/11 11:08:04;;;;;;;19.55;9.32;;;;;;;;;;5063450;28;20066;-67
2023/12/11 11:10:35;;;;;;;21.88;9.52;;;;;;;;;;5064857;28;20043;-71
2023/12/11 11:13:00;;;;;;;20.60;9.75;;;;;;;;;;5059269;28;20090;-70
2023/12/11 11:15:26;;;;;;;21.65;10.50;;;;;;;;;;5061359;28;20457;-71
2023/12/11 11:18:05;;;;;;;27.95;10.75;;;;;;;;;;5058642;28;20032;-71
2023/12/11 11:20:53;;;;;;;25.55;10.30;;;;;;;;;;5061859;28;20024;-70
2023/12/11 11:23:22;;;;;;;21.77;9.85;;;;;;;;;;5050638;28;20028;-71
2023/12/11 11:25:53;;;;;;;22.08;9.20;;;;;;;;;;5059413;28;20020;-69
2023/12/11 11:28:34;;;;;;;19.05;9.60;;;;;;;;;;5060160;28;20033;-72
2023/12/11 11:30:59;;;;;;;23.10;9.43;;;;;;;;;;5063246;28;20028;-71
2023/12/11 11:33:25;;;;;;;16.75;9.18;;;;;;;;;;5049803;28;20036;-72
2023/12/11 11:35:52;;;;;;;20.85;9.25;;;;;;;;;;5058303;28;20748;-70
2023/12/11 11:38:18;;;;;;;21.67;8.27;;;;;;;;;;5047357;28;20039;-70
2023/12/11 11:40:44;;;;;;;18.83;7.78;;;;;;;;;;5071221;28;20036;-71
2023/12/11 11:43:09;;;;;;;18.27;8.32;;;;;;;;;;5074389;28;20084;-71
2023/12/11 11:45:35;;;;;;;18.35;8.13;;;;;;;;;;5059257;28;20056;-70
2023/12/11 11:48:00;;;;;;;17.60;7.72;;;;;;;;;;5080835;28;20092;-70
2023/12/11 11:50:26;;;;;;;17.63;7.70;;;;;;;;;;5061723;28;20013;-69
2023/12/11 11:53:10;;;;;;;17.05;7.80;;;;;;;;;;5082225;28;20075;-70
2023/12/11 11:55:37;;;;;;;18.42;8.32;;;;;;;;;;5052986;28;20036;-69